Data for 07/21/2006

Time Sea-Level Adjusted Pressure Absolute Pressure Temperature Relative Humidity Dew Point   
(mb) (inHg) (mb) (inHg) (C) (F) (%) (C) (F)
00:05 1028 30.36 857 25.31 21.7 71 29 3.2 37.8
00:10 1028 30.36 857 25.31 21.7 71 30 3.5 38.2
00:15 1028 30.36 857 25.31 21.6 70.9 29 3.1 37.6
00:20 1028 30.36 857 25.31 21.5 70.7 30 3.5 38.2
00:25 1028 30.36 857 25.31 21.3 70.4 30 3.1 37.6
00:30 1028 30.36 857 25.31 21.3 70.3 30 3.1 37.6
00:35 1028 30.36 857 25.31 21.3 70.3 30 3 37.4
00:40 1028 30.36 857 25.31 21.2 70.2 30 2.9 37.3
00:45 1028 30.36 857 25.31 21.1 69.9 30 3.1 37.5
00:50 1028 30.36 857 25.31 21.1 69.9 29 2.7 36.9
00:55 1028 30.36 857 25.31 21.1 70 30 2.9 37.2
01:00 1028 30.36 857 25.31 20.9 69.7 30 3 37.4
01:05 1028 30.36 857 25.31 20.8 69.5 30 2.9 37.2
01:10 1028 30.36 857 25.31 20.9 69.5 30 2.9 37.2
01:15 1028 30.36 857 25.31 20.8 69.5 31 3.2 37.7
01:20 1028 30.36 858 25.34 20.7 69.3 30 2.9 37.3
01:25 1028 30.36 858 25.34 20.7 69.2 31 3 37.5
01:30 1028 30.36 858 25.34 20.6 69.2 31 2.9 37.2
01:35 1028 30.36 858 25.34 20.7 69.2 30 2.8 37.1
01:40 1028 30.36 858 25.34 20.7 69.2 31 3 37.3
01:45 1029 30.39 858 25.34 20.6 69.1 31 3.1 37.6
01:50 1028 30.36 858 25.34 20.6 69.1 31 3 37.5
01:55 1028 30.36 858 25.34 20.6 69 31 3 37.4
02:00 1029 30.39 858 25.34 20.6 69.2 31 3.3 37.9
02:05 1029 30.39 858 25.34 20.4 68.7 32 3.3 37.9
02:10 1029 30.39 858 25.34 20.3 68.5 32 3.3 37.9
02:15 1029 30.39 858 25.34 20.3 68.5 32 3.3 38
02:20 1029 30.39 858 25.34 20.1 68.2 33 3.4 38
02:25 1029 30.39 858 25.34 20.1 68.1 33 3.3 38
02:30 1029 30.39 858 25.34 20 68 33 3.4 38
02:35 1029 30.39 858 25.34 20 68.1 33 3.3 38
02:40 1029 30.39 858 25.34 20 68 33 3.4 38.1
02:45 1029 30.39 858 25.34 19.9 67.9 33 3.4 38.1
02:50 1029 30.39 858 25.34 19.8 67.7 33 3.4 38.1
02:55 1028 30.36 858 25.34 19.8 67.6 34 3.5 38.3
03:00 1029 30.39 858 25.34 19.6 67.2 34 3.3 38
03:05 1029 30.39 858 25.34 19.6 67.3 34 3.5 38.4
03:10 1029 30.39 858 25.34 19.4 67 34 3.4 38.2
03:15 1029 30.39 858 25.34 19.4 66.8 34 3.4 38.2
03:20 1029 30.39 858 25.34 19.2 66.6 35 3.5 38.4
03:25 1029 30.39 858 25.34 19.1 66.4 35 3.6 38.4
03:30 1029 30.39 858 25.34 19.1 66.4 35 3.5 38.3
03:35 1029 30.39 858 25.34 19.1 66.4 35 3.5 38.3
03:40 1029 30.39 858 25.34 19.1 66.3 35 3.6 38.4
03:45 1029 30.39 858 25.34 19 66.1 36 3.6 38.4
03:50 1029 30.39 858 25.34 19 66.2 35 3.5 38.3
03:55 1029 30.39 858 25.34 18.9 66.1 36 3.6 38.5
04:00 1029 30.39 858 25.34 18.9 66 36 3.7 38.7
04:05 1029 30.39 858 25.34 18.8 65.8 37 3.9 39.1
04:10 1029 30.39 858 25.34 18.6 65.5 38 4 39.2
04:15 1029 30.39 858 25.34 18.4 65.1 38 4 39.2
04:20 1029 30.39 858 25.34 18.3 64.9 38 4 39.2
04:25 1029 30.39 858 25.34 18.3 64.9 38 4 39.1
04:30 1029 30.39 858 25.34 18.2 64.8 39 4.1 39.4
04:35 1029 30.39 858 25.34 18.1 64.5 40 4.2 39.6
04:40 1029 30.39 858 25.34 17.9 64.3 39 4.1 39.3
04:45 1029 30.39 858 25.34 17.8 64.1 40 4.3 39.7
04:50 1029 30.39 858 25.34 17.6 63.6 41 4.4 39.9
04:55 1029 30.39 858 25.34 17.4 63.3 42 4.4 39.9
05:00 1029 30.39 858 25.34 17.3 63.2 42 4.4 39.9
05:05 1029 30.39 858 25.34 17.2 63 42 4.5 40
05:10 1029 30.39 858 25.34 17.1 62.8 43 4.5 40
05:15 1029 30.39 858 25.34 17.1 62.7 43 4.6 40.2
05:20 1029 30.39 859 25.37 16.9 62.5 43 4.5 40.1
05:25 1029 30.39 859 25.37 17 62.5 43 4.4 40
05:30 1030 30.42 859 25.37 17.1 62.8 42 4.4 39.8
05:35 1030 30.42 859 25.37 17.1 62.7 43 4.5 40.1
05:40 1030 30.42 859 25.37 17 62.5 43 4.6 40.2
05:45 1030 30.42 859 25.37 16.9 62.4 44 4.5 40.1
05:50 1030 30.42 859 25.37 16.9 62.3 44 4.5 40.2
05:55 1030 30.42 859 25.37 16.7 62 45 4.7 40.5
06:00 1030 30.42 859 25.37 16.6 61.8 45 4.8 40.7
06:05 1030 30.42 859 25.37 16.5 61.6 45 4.6 40.3
06:10 1030 30.42 859 25.37 16.4 61.5 46 5 41
06:15 1030 30.42 859 25.37 16.1 61 46 4.7 40.5
06:20 1030 30.42 859 25.37 16.3 61.3 46 4.7 40.5
06:25 1030 30.42 859 25.37 16.3 61.3 46 4.8 40.7
06:30 1030 30.42 859 25.37 16.2 61.2 46 4.8 40.7
06:35 1030 30.42 859 25.37 16.2 61.2 47 4.9 40.8
06:40 1030 30.42 859 25.37 16.2 61.1 46 4.8 40.6
06:45 1030 30.42 859 25.37 16.2 61.2 47 4.9 40.8
06:50 1030 30.42 859 25.37 16.1 60.9 52 6.2 43.2
06:55 1030 30.42 859 25.37 15.6 60 51 5.6 42.1
07:00 1030 30.42 859 25.37 15.8 60.4 49 5.3 41.5
07:05 1030 30.42 859 25.37 16.4 61.5 47 5.2 41.4
07:10 1030 30.42 859 25.37 16.7 62.1 47 5.5 41.8
07:15 1030 30.42 859 25.37 17 62.5 50 6.5 43.7
07:20 1030 30.42 859 25.37 16.4 61.6 50 6.1 43
07:25 1030 30.42 859 25.37 16.9 62.4 48 6 42.9
07:30 1030 30.42 859 25.37 17.4 63.3 47 6.1 42.9
07:35 1030 30.42 859 25.37 17.7 63.9 47 6.3 43.4
07:40 1030 30.42 859 25.37 18 64.3 46 6.4 43.5
07:45 1030 30.42 859 25.37 18.2 64.7 44 5.8 42.5
07:50 1030 30.42 859 25.37 18.3 64.9 44 6 42.7
07:55 1030 30.42 859 25.37 18.6 65.5 43 5.9 42.6
08:00 1030 30.42 859 25.37 18.8 65.9 43 6.2 43.2
08:05 1030 30.42 859 25.37 19.2 66.6 43 6.4 43.6
08:10 1030 30.42 859 25.37 19.8 67.6 39 5.6 42.1
08:15 1030 30.42 859 25.37 20 68 39 5.9 42.7
08:20 1030 30.42 859 25.37 20.6 69 37 5.7 42.2
08:25 1030 30.42 859 25.37 20.9 69.5 38 6.1 42.9
08:30 1030 30.42 859 25.37 21.2 70.1 35 5.5 41.8
08:35 1030 30.42 859 25.37 21.5 70.7 34 5.4 41.6
08:40 1030 30.42 859 25.37 21.8 71.2 34 5.4 41.6
08:45 1030 30.42 859 25.37 21.7 71.1 37 6.4 43.5
08:50 1030 30.42 859 25.37 21.5 70.8 38 6.7 44
08:55 1030 30.42 859 25.37 21.9 71.5 36 6.2 43.2
09:00 1030 30.42 859 25.37 21.9 71.4 37 6.7 44.1
09:05 1030 30.42 859 25.37 21 69.9 38 6.3 43.3
09:10 1030 30.42 859 25.37 20.9 69.7 37 6 42.7
09:15 1030 30.42 859 25.37 21.1 70 35 5.3 41.5
09:20 1030 30.42 859 25.37 20.9 69.6 37 5.7 42.3
09:25 1030 30.42 859 25.37 21 69.8 37 5.9 42.7
09:30 1030 30.42 859 25.37 21.3 70.3 36 5.6 42.1
09:35 1030 30.42 859 25.37 21.7 71.1 35 5.8 42.5
09:40 1030 30.42 859 25.37 22.2 72 34 5.7 42.2
09:45 1030 30.42 859 25.37 22.5 72.4 33 5.6 42
09:50 1030 30.42 859 25.37 22.6 72.7 33 5.9 42.6
09:55 1030 30.42 859 25.37 22.5 72.5 34 5.9 42.6
10:00 1030 30.42 859 25.37 22.6 72.7 33 5.5 42
10:05 1030 30.42 859 25.37 22.7 72.9 33 6 42.8
10:10 1030 30.42 859 25.37 23 73.5 33 5.9 42.6
10:15 1030 30.42 859 25.37 22.9 73.1 33 5.9 42.7
10:20 1030 30.42 859 25.37 22.4 72.3 32 5.1 41.2
10:25 1030 30.42 859 25.37 22.5 72.6 33 5.5 41.9
10:30 1030 30.42 859 25.37 23 73.5 32 5.8 42.5
10:35 1030 30.42 859 25.37 23.7 74.7 32 6.5 43.7
10:40 1030 30.42 859 25.37 23.4 74.2 34 6.9 44.5
10:45 1030 30.42 859 25.37 23.6 74.6 32 6.1 43
10:50 1030 30.42 859 25.37 24.1 75.3 31 6.1 43
10:55 1030 30.42 859 25.37 24.1 75.4 30 5.9 42.6
11:00 1030 30.42 859 25.37 24.4 76 31 6.4 43.4
11:05 1030 30.42 859 25.37 24.1 75.4 31 6.2 43.1
11:10 1030 30.42 859 25.37 24.5 76.1 29 5.4 41.6
11:15 1030 30.42 859 25.37 25 77 29 5.8 42.5
11:20 1030 30.42 859 25.37 24.4 75.9 29 5.3 41.5
11:25 1030 30.42 859 25.37 24.6 76.3 30 5.9 42.6
11:30 1030 30.42 859 25.37 25.1 77.3 29 6.2 43.2
11:35 1030 30.42 859 25.37 26 78.8 28 6.2 43.2
11:40 1030 30.42 859 25.37 26.1 78.9 27 6 42.8
11:45 1029 30.39 859 25.37 25.9 78.7 28 6.4 43.6
11:50 1029 30.39 859 25.37 25.9 78.6 28 6.3 43.3
11:55 1029 30.39 859 25.37 25.7 78.3 28 6.2 43.1
12:00 1029 30.39 859 25.37 25.2 77.3 28 5.4 41.7
12:05 1029 30.39 859 25.37 25.7 78.2 28 6.3 43.3
12:10 1029 30.39 858 25.34 26 78.8 28 6.1 43
12:15 1029 30.39 858 25.34 26.5 79.7 26 5.9 42.6
12:20 1029 30.39 858 25.34 27.3 81.1 26 6.3 43.4
12:25 1029 30.39 858 25.34 27.4 81.2 27 6.8 44.2
12:30 1029 30.39 858 25.34 27.5 81.4 26 6.4 43.4
12:35 1029 30.39 858 25.34 27.9 82.1 25 6.2 43.1
12:40 1029 30.39 858 25.34 27.7 81.9 26 6.7 44
12:45 1029 30.39 858 25.34 27.7 81.8 24 5.7 42.3
12:50 1029 30.39 858 25.34 28.3 83 24 6.1 43
12:55 1029 30.39 858 25.34 28.2 82.8 25 6.6 43.9
13:00 1029 30.39 858 25.34 27.9 82.2 26 6.7 44
13:05 1029 30.39 858 25.34 28.3 83 25 6.7 44
13:10 1029 30.39 858 25.34 28.9 83.9 23 6.3 43.3
13:15 1029 30.39 858 25.34 29.2 84.5 24 6.7 44.1
13:20 1029 30.39 858 25.34 29 84.2 24 6.8 44.3
13:25 1029 30.39 858 25.34 28.3 83 25 6.7 44
13:30 1029 30.39 858 25.34 27.4 81.2 25 5.9 42.6
13:35 1029 30.39 858 25.34 28 82.4 24 5.6 42.1
13:40 1029 30.39 858 25.34 28.7 83.6 23 5.7 42.2
13:45 1029 30.39 858 25.34 29.2 84.5 23 6.3 43.3
13:50 1029 30.39 858 25.34 29.5 85.2 23 6.6 43.8
13:55 1029 30.39 858 25.34 30 86 22 6.4 43.6
14:00 1029 30.39 858 25.34 30.4 86.8 23 7.2 44.9
14:05 1029 30.39 858 25.34 30.6 87 21 6.3 43.4
14:10 1029 30.39 858 25.34 30.8 87.4 22 7 44.5
14:15 1028 30.36 858 25.34 30.6 87 22 6.6 43.9
14:20 1028 30.36 858 25.34 30.4 86.7 22 6.8 44.3
14:25 1028 30.36 858 25.34 30.3 86.5 20 5.5 41.9
14:30 1028 30.36 857 25.31 30 85.9 22 6.1 43
14:35 1028 30.36 857 25.31 30.1 86.2 20 5.2 41.4
14:40 1028 30.36 857 25.31 30.4 86.7 21 6.3 43.4
14:45 1028 30.36 857 25.31 30.7 87.3 20 5.8 42.4
14:50 1028 30.36 857 25.31 30.1 86.2 22 6.1 43
14:55 1028 30.36 857 25.31 30.2 86.3 21 5.7 42.3
15:00 1028 30.36 857 25.31 30.5 86.9 19 5 40.9
15:05 1028 30.36 857 25.31 31 87.9 19 5.2 41.4
15:10 1028 30.36 857 25.31 31.3 88.3 19 5 41
15:15 1028 30.36 857 25.31 30.8 87.4 21 6.3 43.3
15:20 1028 30.36 857 25.31 31.3 88.3 19 5.5 41.9
15:25 1028 30.36 857 25.31 31.8 89.3 19 5.4 41.8
15:30 1028 30.36 857 25.31 30.7 87.2 20 5.4 41.7
15:35 1028 30.36 857 25.31 30.6 87 20 5.4 41.6
15:40 1028 30.36 857 25.31 31.3 88.3 19 5.4 41.8
15:45 1028 30.36 857 25.31 30.8 87.4 20 5.6 42
15:50 1028 30.36 857 25.31 30.3 86.5 19 4.4 39.8
15:55 1028 30.36 857 25.31 30.7 87.3 19 4.9 40.9
16:00 1028 30.36 857 25.31 31.1 88 19 4.8 40.7
16:05 1028 30.36 857 25.31 31.7 89 19 5.9 42.6
16:10 1028 30.36 857 25.31 32.2 89.9 17 4.2 39.6
16:15 1028 30.36 857 25.31 31.9 89.3 19 5.6 42.1
16:20 1028 30.36 857 25.31 32.3 90.1 19 5.9 42.6
16:25 1027 30.33 857 25.31 31 87.8 19 5.2 41.3
16:30 1027 30.33 857 25.31 30.4 86.8 20 5.1 41.3
16:35 1027 30.33 857 25.31 30.7 87.3 20 5.3 41.5
16:40 1027 30.33 857 25.31 31.3 88.4 19 5.1 41.2
16:45 1027 30.33 857 25.31 32.2 90 18 5.4 41.8
16:50 1027 30.33 856 25.28 31.9 89.4 19 5.6 42.1
16:55 1027 30.33 856 25.28 31.3 88.3 19 5.4 41.7
17:00 1027 30.33 856 25.28 31.5 88.6 19 5.2 41.4
17:05 1027 30.33 856 25.28 31.6 88.8 19 5.4 41.7
17:10 1027 30.33 856 25.28 31.6 88.8 18 5.1 41.2
17:15 1027 30.33 856 25.28 31.8 89.2 19 5.4 41.7
17:20 1027 30.33 856 25.28 31.6 88.9 18 5 40.9
17:25 1027 30.33 856 25.28 31.5 88.7 19 5.4 41.7
17:30 1027 30.33 856 25.28 31.6 88.8 18 4.9 40.9
17:35 1027 30.33 856 25.28 31.7 89.1 18 5.1 41.2
17:40 1027 30.33 856 25.28 31.1 87.9 20 5.6 42.1
17:45 1027 30.33 856 25.28 30.9 87.7 20 5.5 42
17:50 1027 30.33 856 25.28 31.1 88 21 6.6 43.9
17:55 1027 30.33 856 25.28 31.3 88.3 19 5.6 42
18:00 1027 30.33 856 25.28 31.4 88.5 20 6 42.9
18:05 1027 30.33 856 25.28 31.3 88.4 20 6.4 43.5
18:10 1027 30.33 856 25.28 31.6 88.9 21 7.1 44.8
18:15 1027 30.33 856 25.28 31.2 88.1 22 7.2 44.9
18:20 1027 30.33 856 25.28 31.3 88.4 20 6.4 43.5
18:25 1027 30.33 856 25.28 31.3 88.3 21 6.4 43.6
18:30 1027 30.33 856 25.28 30.9 87.7 21 6.6 44
18:35 1027 30.33 856 25.28 31.1 88.1 21 6.6 43.8
18:40 1027 30.33 856 25.28 31 87.8 21 6.4 43.6
18:45 1027 30.33 856 25.28 30.6 87.1 18 3.7 38.6
18:50 1027 30.33 856 25.28 30.6 87 18 3.7 38.7
18:55 1027 30.33 856 25.28 30.2 86.3 18 3.9 39
19:00 1027 30.33 856 25.28 29.9 85.8 19 3.9 39
19:05 1027 30.33 856 25.28 29.7 85.4 18 3.3 37.9
19:10 1027 30.33 856 25.28 29.6 85.3 19 3.9 39
19:15 1027 30.33 856 25.28 29.4 84.8 19 3.9 38.9
19:20 1027 30.33 856 25.28 29.1 84.3 20 4.1 39.4
19:25 1027 30.33 856 25.28 28.8 83.8 21 4.6 40.3
19:30 1027 30.33 856 25.28 28.7 83.7 21 4.6 40.3
19:35 1027 30.33 856 25.28 28.6 83.5 22 4.8 40.7
19:40 1027 30.33 856 25.28 28.5 83.3 21 4.2 39.6
19:45 1027 30.33 856 25.28 28.3 83 21 4.4 39.8
19:50 1027 30.33 856 25.28 28.2 82.8 22 4.5 40.2
19:55 1027 30.33 856 25.28 28.1 82.5 22 4.9 40.8
20:00 1027 30.33 856 25.28 27.9 82.2 22 4.2 39.6
20:05 1027 30.33 856 25.28 27.7 81.9 21 4 39.2
20:10 1027 30.33 856 25.28 27.6 81.7 22 4.1 39.4
20:15 1027 30.33 856 25.28 27.5 81.4 22 4.4 39.9
20:20 1027 30.33 856 25.28 27.3 81.1 22 4.2 39.5
20:25 1027 30.33 856 25.28 27.2 80.9 23 4.3 39.7
20:30 1027 30.33 856 25.28 27.1 80.7 23 4.4 39.9
20:35 1027 30.33 856 25.28 26.8 80.3 23 4.2 39.6
20:40 1027 30.33 856 25.28 26.7 80 23 4.2 39.6
20:45 1027 30.33 856 25.28 26.5 79.6 24 4.3 39.7
20:50 1027 30.33 856 25.28 26.3 79.3 24 4.4 39.9
20:55 1027 30.33 856 25.28 26.2 79.1 24 4.5 40.1
21:00 1027 30.33 856 25.28 26 78.7 25 4.6 40.2
21:05 1027 30.33 856 25.28 25.8 78.4 25 4.7 40.4
21:10 1027 30.33 856 25.28 25.5 77.9 26 4.7 40.4
21:15 1027 30.33 856 25.28 25.5 77.8 25 4.3 39.7
21:20 1027 30.33 856 25.28 25.4 77.7 26 4.5 40.1
21:25 1027 30.33 856 25.28 25.3 77.5 26 4.4 39.9
21:30 1027 30.33 856 25.28 25.1 77.2 26 4.3 39.7
21:35 1027 30.33 856 25.28 25.1 77.3 25 4.2 39.6
21:40 1027 30.33 856 25.28 25 77 26 4.2 39.6
21:45 1027 30.33 856 25.28 25 77 25 4.1 39.3
21:50 1027 30.33 856 25.28 24.9 76.9 25 3.9 39.1
21:55 1027 30.33 856 25.28 24.9 76.8 25 4 39.1
22:00 1027 30.33 856 25.28 24.8 76.6 25 3.8 38.9
22:05 1027 30.33 856 25.28 24.6 76.3 26 4 39.2
22:10 1027 30.33 856 25.28 24.5 76.2 26 3.8 38.9
22:15 1027 30.33 856 25.28 24.6 76.2 26 3.8 38.8
22:20 1027 30.33 856 25.28 24.6 76.3 26 3.9 39
22:25 1027 30.33 856 25.28 24.6 76.2 26 4 39.1
22:30 1027 30.33 856 25.28 24.5 76 26 3.9 39.1
22:35 1027 30.33 856 25.28 24.3 75.8 26 3.8 38.9
22:40 1027 30.33 856 25.28 24.3 75.7 26 3.9 39
22:45 1027 30.33 856 25.28 24.3 75.7 26 3.7 38.7
22:50 1027 30.33 856 25.28 24.2 75.6 26 3.8 38.8
22:55 1027 30.33 856 25.28 24.2 75.6 26 3.9 39
23:00 1027 30.33 856 25.28 24 75.2 26 3.7 38.7
23:05 1027 30.33 856 25.28 23.9 75.1 27 3.9 39.1
23:10 1027 30.33 856 25.28 23.8 74.9 27 3.8 38.9
23:15 1027 30.33 856 25.28 23.7 74.7 27 3.9 38.9
23:20 1027 30.33 856 25.28 23.6 74.6 27 3.8 38.8
23:25 1027 30.33 856 25.28 23.6 74.5 27 4 39.1
23:30 1027 30.33 856 25.28 23.6 74.4 27 3.9 39.1
23:35 1027 30.33 856 25.28 23.6 74.4 27 4 39.1
23:40 1027 30.33 856 25.28 23.6 74.5 27 3.9 39.1
23:45 1027 30.33 856 25.28 23.5 74.3 28 4 39.1
23:50 1027 30.33 856 25.28 23.4 74.1 28 4.1 39.4
23:55 1027 30.33 856 25.28 23.2 73.8 29 4.2 39.5
24:00 1027 30.33 856 25.28 23.1 73.6 29 4.1 39.4